createdAt,value
2023-05-09T00:03:34.068Z,19.67
2023-05-09T00:07:35.635Z,14.60
2023-05-09T00:11:37.152Z,13.80
2023-05-09T00:15:40.051Z,13.65
2023-05-09T00:19:41.530Z,15.68
2023-05-09T00:23:43.055Z,16.98
2023-05-09T00:27:44.554Z,16.67
2023-05-09T00:31:47.455Z,17.45
2023-05-09T00:35:48.968Z,19.15
2023-05-09T00:39:50.485Z,17.77
2023-05-09T00:43:52.013Z,16.85
2023-05-09T00:47:55.546Z,18.05
2023-05-09T00:51:57.128Z,18.98
2023-05-09T00:56:00.465Z,16.98
2023-05-09T01:00:02.174Z,16.35
2023-05-09T01:04:05.444Z,17.48
2023-05-09T01:08:13.179Z,18.95
2023-05-09T01:12:30.153Z,20.48
2023-05-09T01:16:37.817Z,16.50
2023-05-09T01:20:44.347Z,15.07
2023-05-09T01:25:06.112Z,23.98
2023-05-09T01:29:36.674Z,16.00
2023-05-09T01:33:42.519Z,16.08
2023-05-09T01:37:49.792Z,16.58
2023-05-09T01:41:53.688Z,24.25
2023-05-09T01:45:59.047Z,18.50
2023-05-09T01:50:03.218Z,17.70
2023-05-09T01:54:06.604Z,16.45
2023-05-09T01:58:08.835Z,20.13
2023-05-09T02:02:12.724Z,18.97
2023-05-09T02:06:15.968Z,23.50
2023-05-09T02:14:19.320Z,20.88
2023-05-09T02:18:22.209Z,24.42
2023-05-09T02:22:23.928Z,20.98
2023-05-09T02:26:26.670Z,16.95
2023-05-09T02:30:34.972Z,19.52
2023-05-09T02:34:39.237Z,18.08
2023-05-09T02:38:40.909Z,15.25
2023-05-09T02:42:42.401Z,17.25
2023-05-09T02:46:44.122Z,20.38
2023-05-09T02:50:46.986Z,25.95
2023-05-09T02:54:48.512Z,18.90
2023-05-09T02:58:50.007Z,24.98
2023-05-09T03:02:51.682Z,18.75
2023-05-09T03:06:54.593Z,19.15
2023-05-09T03:10:56.111Z,21.00
2023-05-09T03:14:57.718Z,16.63
2023-05-09T03:18:59.257Z,18.02
2023-05-09T03:23:02.140Z,19.83
2023-05-09T03:27:03.770Z,18.67
2023-05-09T03:31:05.394Z,17.42
2023-05-09T03:35:07.768Z,17.35
2023-05-09T03:39:10.693Z,17.30
2023-05-09T03:43:12.233Z,20.38
2023-05-09T03:47:13.767Z,17.80
2023-05-09T03:51:15.350Z,21.58
2023-05-09T03:55:18.214Z,22.92
2023-05-09T03:59:19.751Z,18.10
2023-05-09T04:03:21.373Z,16.73
2023-05-09T04:07:22.999Z,18.15
2023-05-09T04:11:25.893Z,17.52
2023-05-09T04:15:27.429Z,18.63
2023-05-09T04:19:28.929Z,26.73
2023-05-09T04:23:30.514Z,17.67
2023-05-09T04:27:33.405Z,18.83
2023-05-09T04:31:35.015Z,17.20
2023-05-09T04:35:36.629Z,18.25
2023-05-09T04:39:38.141Z,18.02
2023-05-09T04:43:41.303Z,18.42
2023-05-09T04:51:44.286Z,14.52
2023-05-09T04:55:45.824Z,16.45
2023-05-09T04:59:49.844Z,15.23
2023-05-09T05:03:51.405Z,13.52
2023-05-09T05:07:53.270Z,14.50
2023-05-09T05:12:01.631Z,15.02
2023-05-09T05:16:06.461Z,12.02
2023-05-09T05:20:08.729Z,13.00
2023-05-09T05:24:10.302Z,11.05
2023-05-09T05:28:11.830Z,9.27
2023-05-09T05:32:14.699Z,9.82
2023-05-09T05:36:16.229Z,9.55
2023-05-09T05:40:17.830Z,10.02
2023-05-09T05:44:19.393Z,10.25
2023-05-09T05:48:22.313Z,9.70
2023-05-09T05:52:23.874Z,8.02
2023-05-09T05:56:25.388Z,7.60
2023-05-09T06:00:26.952Z,10.10
2023-05-09T06:04:29.812Z,9.93
2023-05-09T06:08:31.383Z,8.35
2023-05-09T06:12:32.951Z,10.07
2023-05-09T06:16:34.535Z,10.55
2023-05-09T06:20:37.446Z,10.43
2023-05-09T06:28:40.369Z,9.25
2023-05-09T06:32:41.974Z,7.43
2023-05-09T06:36:44.884Z,9.13
2023-05-09T06:44:47.846Z,8.90
2023-05-09T06:48:49.370Z,12.40
2023-05-09T06:52:52.253Z,7.53
2023-05-09T06:56:53.871Z,9.02
2023-05-09T07:00:55.492Z,15.13
2023-05-09T07:04:57.136Z,8.30
2023-05-09T07:09:00.626Z,11.35
2023-05-09T07:13:02.210Z,9.32
2023-05-09T07:17:21.267Z,8.10
2023-05-09T07:21:24.736Z,10.07
2023-05-09T07:25:27.618Z,8.75
2023-05-09T07:33:30.653Z,7.43
2023-05-09T07:37:32.197Z,8.35
2023-05-09T07:41:35.238Z,10.85
2023-05-09T07:45:36.831Z,8.82
2023-05-09T07:49:38.387Z,7.75
2023-05-09T07:53:39.961Z,7.13
2023-05-09T07:57:42.842Z,7.95
2023-05-09T08:05:45.846Z,13.05
2023-05-09T08:09:47.379Z,7.57
2023-05-09T08:13:50.257Z,12.05
2023-05-09T08:17:51.913Z,7.82
2023-05-09T08:21:53.491Z,7.63
2023-05-09T08:25:55.214Z,21.25
2023-05-09T08:29:58.081Z,5.82
2023-05-09T08:38:00.998Z,10.32
2023-05-09T08:42:02.697Z,12.80
2023-05-09T08:46:08.045Z,7.32
2023-05-09T08:50:09.935Z,7.15
2023-05-09T08:54:11.796Z,6.82
2023-05-09T08:58:13.778Z,7.15
2023-05-09T09:02:16.774Z,8.00
2023-05-09T09:10:22.199Z,6.40
2023-05-09T09:18:29.951Z,8.25
2023-05-09T09:22:33.644Z,9.10
2023-05-09T09:26:45.292Z,6.78
2023-05-09T09:30:47.780Z,7.60
2023-05-09T09:34:50.694Z,9.43
2023-05-09T09:42:57.773Z,10.18
2023-05-09T09:46:59.302Z,9.35
2023-05-09T09:51:07.859Z,8.20
2023-05-09T09:55:09.586Z,14.00
2023-05-09T09:59:12.405Z,5.65
2023-05-09T10:03:16.927Z,12.52
2023-05-09T10:07:22.764Z,5.93
2023-05-09T10:11:24.315Z,10.07
2023-05-09T10:15:26.541Z,6.40
2023-05-09T10:19:29.682Z,6.00
2023-05-09T10:23:36.603Z,7.18
2023-05-09T10:27:39.886Z,13.38
2023-05-09T10:31:44.360Z,4.68
2023-05-09T10:35:47.036Z,9.27
2023-05-09T10:39:50.420Z,5.88
2023-05-09T10:43:52.406Z,6.68
2023-05-09T10:47:54.639Z,12.25
2023-05-09T10:51:56.221Z,8.75
2023-05-09T10:55:59.121Z,6.25
2023-05-09T11:04:08.676Z,6.38
2023-05-09T11:08:27.063Z,12.88
2023-05-09T11:12:29.945Z,7.18
2023-05-09T11:20:34.284Z,5.75
2023-05-09T11:24:38.194Z,6.07
2023-05-09T11:28:41.121Z,9.52
2023-05-09T11:40:51.537Z,8.27
2023-05-09T11:44:56.031Z,7.63
2023-05-09T11:48:58.916Z,9.60
2023-05-09T11:57:01.890Z,6.78
2023-05-09T12:01:04.990Z,8.45
2023-05-09T12:05:07.809Z,6.95
2023-05-09T12:13:10.808Z,6.88
2023-05-09T12:17:13.739Z,6.78
2023-05-09T12:25:17.107Z,8.80
2023-05-09T12:29:19.465Z,8.17
2023-05-09T12:33:22.612Z,6.57
2023-05-09T12:37:24.194Z,6.63
2023-05-09T12:45:32.324Z,5.32
2023-05-09T12:49:36.852Z,4.53
2023-05-09T12:53:39.986Z,6.43
2023-05-09T12:57:41.853Z,4.75
2023-05-09T13:01:51.113Z,5.97
2023-05-09T13:05:58.083Z,6.50
2023-05-09T13:09:59.624Z,6.32
2023-05-09T13:14:02.830Z,6.50
2023-05-09T13:18:04.436Z,7.78
2023-05-09T13:22:07.346Z,5.13
2023-05-09T13:30:11.336Z,5.63
2023-05-09T13:34:12.865Z,5.22
2023-05-09T13:38:15.738Z,5.22
2023-05-09T13:46:20.890Z,5.93
2023-05-09T13:50:22.630Z,4.75
2023-05-09T13:54:25.683Z,5.70
2023-05-09T13:58:27.263Z,6.07
2023-05-09T14:02:28.868Z,10.65
2023-05-09T14:06:30.432Z,8.65
2023-05-09T14:10:33.304Z,9.40
2023-05-09T14:14:35.255Z,8.10
2023-05-09T14:18:36.792Z,5.27
2023-05-09T14:22:38.373Z,8.10
2023-05-09T14:26:41.294Z,10.68
2023-05-09T14:30:42.890Z,8.85
2023-05-09T14:34:44.474Z,9.13
2023-05-09T14:38:46.333Z,10.85
2023-05-09T14:42:49.345Z,11.30
2023-05-09T14:46:50.951Z,8.20
2023-05-09T14:50:52.517Z,9.40
2023-05-09T14:54:54.078Z,17.20
2023-05-09T14:58:57.168Z,10.82
2023-05-09T15:02:58.713Z,12.82
2023-05-09T15:07:00.297Z,10.57
2023-05-09T15:11:01.884Z,7.25
2023-05-09T15:15:17.641Z,11.25
2023-05-09T15:19:19.264Z,7.80
2023-05-09T15:23:20.889Z,8.75
2023-05-09T15:27:22.415Z,12.80
2023-05-09T15:31:25.349Z,7.72
2023-05-09T15:35:27.000Z,8.77
2023-05-09T15:39:34.090Z,12.57
2023-05-09T15:43:35.626Z,10.80
2023-05-09T15:47:38.544Z,13.70
2023-05-09T15:51:40.137Z,10.23
2023-05-09T15:55:41.693Z,9.98
2023-05-09T15:59:43.211Z,7.97
2023-05-09T16:03:46.289Z,8.82
2023-05-09T16:07:48.027Z,10.85
2023-05-09T16:11:49.550Z,9.73
2023-05-09T16:15:51.212Z,12.48
2023-05-09T16:19:54.711Z,9.52
2023-05-09T16:23:56.253Z,9.18
2023-05-09T16:27:57.821Z,7.78
2023-05-09T16:31:59.363Z,10.07
2023-05-09T16:36:02.325Z,9.70
2023-05-09T16:40:04.851Z,6.97
2023-05-09T16:44:06.462Z,8.95
2023-05-09T16:48:08.068Z,11.98
2023-05-09T16:52:10.974Z,11.85
2023-05-09T17:00:14.889Z,7.72
2023-05-09T17:04:16.924Z,8.70
2023-05-09T17:08:19.849Z,9.35
2023-05-09T17:16:22.774Z,13.05
2023-05-09T17:20:24.417Z,7.85
2023-05-09T17:24:27.300Z,8.45
2023-05-09T17:32:30.241Z,9.20
2023-05-09T17:36:31.869Z,9.07
2023-05-09T17:40:34.772Z,9.40
2023-05-09T17:48:37.728Z,10.07
2023-05-09T17:52:39.258Z,6.82
2023-05-09T17:56:42.126Z,9.38
2023-05-09T18:04:45.027Z,9.07
2023-05-09T18:08:46.558Z,7.82
2023-05-09T18:12:49.480Z,11.52
2023-05-09T18:16:51.015Z,13.38
2023-05-09T18:20:52.553Z,7.03
2023-05-09T18:24:54.082Z,7.13
2023-05-09T18:28:57.696Z,8.70
2023-05-09T18:32:59.434Z,7.18
2023-05-09T18:37:00.988Z,9.05
2023-05-09T18:41:02.494Z,7.05
2023-05-09T18:45:06.507Z,7.30
2023-05-09T18:49:08.032Z,8.40
2023-05-09T18:53:09.566Z,8.00
2023-05-09T18:57:11.079Z,8.05
2023-05-09T19:01:14.154Z,7.57
2023-05-09T19:09:17.119Z,9.25
2023-05-09T19:13:18.738Z,13.77
2023-05-09T19:17:21.687Z,8.15
2023-05-09T19:21:23.410Z,9.95
2023-05-09T19:25:25.285Z,11.80
2023-05-09T19:29:26.893Z,9.27
2023-05-09T19:33:29.770Z,7.93
2023-05-09T19:37:31.291Z,11.77
2023-05-09T19:41:33.080Z,10.13
2023-05-09T19:45:34.779Z,7.15
2023-05-09T19:49:37.695Z,13.25
2023-05-09T19:53:40.192Z,9.02
2023-05-09T19:57:41.721Z,13.43
2023-05-09T20:01:43.305Z,11.25
2023-05-09T20:05:46.357Z,10.63
2023-05-09T20:09:47.890Z,15.07
2023-05-09T20:13:49.616Z,7.20
2023-05-09T20:17:51.285Z,11.65
2023-05-09T20:21:54.148Z,7.13
2023-05-09T20:30:06.563Z,11.02
2023-05-09T20:34:09.704Z,10.38
2023-05-09T20:42:13.985Z,11.97
2023-05-09T20:46:15.840Z,10.13
2023-05-09T20:50:17.883Z,7.93
2023-05-09T20:54:21.011Z,7.40
2023-05-09T20:58:22.556Z,12.10
2023-05-09T21:02:24.158Z,10.30
2023-05-09T21:06:25.885Z,8.50
2023-05-09T21:10:28.754Z,16.90
2023-05-09T21:14:30.570Z,9.43
2023-05-09T21:18:32.135Z,7.78
2023-05-09T21:22:33.653Z,8.25
2023-05-09T21:26:36.552Z,16.33
2023-05-09T21:30:38.069Z,10.80
2023-05-09T21:34:39.598Z,14.23
2023-05-09T21:38:41.131Z,9.45
2023-05-09T21:42:44.452Z,8.48
2023-05-09T21:46:46.184Z,7.90
2023-05-09T21:50:48.011Z,9.50
2023-05-09T21:54:49.540Z,10.93
2023-05-09T21:58:52.420Z,9.20
2023-05-09T22:02:54.029Z,9.30
2023-05-09T22:06:55.603Z,10.63
2023-05-09T22:10:57.128Z,11.77
2023-05-09T22:15:00.005Z,11.55
2023-05-09T22:19:01.747Z,8.60
2023-05-09T22:23:03.324Z,11.40
2023-05-09T22:27:04.884Z,10.88
2023-05-09T22:31:07.978Z,7.40
2023-05-09T22:39:11.565Z,10.45
2023-05-09T22:43:13.140Z,10.23
2023-05-09T22:47:16.062Z,8.88
2023-05-09T22:51:17.630Z,11.82
2023-05-09T22:55:19.200Z,8.00
2023-05-09T22:59:20.740Z,10.52
2023-05-09T23:03:23.708Z,11.68
2023-05-09T23:07:25.411Z,7.75
2023-05-09T23:11:26.975Z,8.57
2023-05-09T23:15:28.589Z,8.30
2023-05-09T23:19:31.473Z,11.18
2023-05-09T23:23:32.989Z,13.55
2023-05-09T23:27:34.519Z,8.98
2023-05-09T23:31:36.120Z,7.97
2023-05-09T23:35:39.018Z,7.47
2023-05-09T23:39:40.572Z,7.78
2023-05-09T23:43:42.097Z,7.78
2023-05-09T23:47:43.667Z,9.48
2023-05-09T23:51:46.571Z,7.97
2023-05-09T23:55:48.136Z,7.57
2023-05-09T23:59:49.659Z,7.57
